sensor_id;sensor_type;location;lat;lon;timestamp;P1;durP1;ratioP1;P2;durP2;ratioP2
20824;SDS011;10573;50.936;6.978;2023-05-07T10:09:26;1.10;;;0.80;;
20824;SDS011;10573;50.936;6.978;2023-05-07T10:11:52;1.65;;;1.08;;
20824;SDS011;10573;50.936;6.978;2023-05-07T10:14:19;1.00;;;0.90;;
20824;SDS011;10573;50.936;6.978;2023-05-07T10:31:42;2.58;;;1.02;;
20824;SDS011;10573;50.936;6.978;2023-05-07T10:34:23;2.72;;;1.10;;
20824;SDS011;10573;50.936;6.978;2023-05-07T10:36:52;4.70;;;1.02;;
20824;SDS011;10573;50.936;6.978;2023-05-07T10:39:20;1.23;;;0.88;;
20824;SDS011;10573;50.936;6.978;2023-05-07T10:41:47;2.70;;;1.00;;
20824;SDS011;10573;50.936;6.978;2023-05-07T10:44:26;1.92;;;1.00;;
20824;SDS011;10573;50.936;6.978;2023-05-07T10:47:06;1.73;;;1.00;;
20824;SDS011;10573;50.936;6.978;2023-05-07T10:49:35;1.37;;;0.70;;
20824;SDS011;10573;50.936;6.978;2023-05-07T10:52:11;1.95;;;0.95;;
20824;SDS011;10573;50.936;6.978;2023-05-07T10:54:44;3.15;;;0.93;;
20824;SDS011;10573;50.936;6.978;2023-05-07T10:59:58;1.57;;;0.87;;
20824;SDS011;10573;50.936;6.978;2023-05-07T11:02:23;1.40;;;0.70;;
20824;SDS011;10573;50.936;6.978;2023-05-07T11:05:23;2.10;;;0.98;;
20824;SDS011;10573;50.936;6.978;2023-05-07T11:07:59;1.27;;;0.80;;
20824;SDS011;10573;50.936;6.978;2023-05-07T11:13:13;2.08;;;1.02;;
20824;SDS011;10573;50.936;6.978;2023-05-07T11:15:40;0.80;;;0.80;;
20824;SDS011;10573;50.936;6.978;2023-05-07T11:18:08;2.67;;;0.73;;
20824;SDS011;10573;50.936;6.978;2023-05-07T11:26:09;1.45;;;0.70;;
20824;SDS011;10573;50.936;6.978;2023-05-07T11:33:31;1.65;;;0.70;;
20824;SDS011;10573;50.936;6.978;2023-05-07T11:35:57;3.88;;;0.65;;
20824;SDS011;10573;50.936;6.978;2023-05-07T11:38:24;3.10;;;0.80;;
20824;SDS011;10573;50.936;6.978;2023-05-07T11:40:50;0.82;;;0.65;;
20824;SDS011;10573;50.936;6.978;2023-05-07T11:43:20;6.70;;;0.80;;
20824;SDS011;10573;50.936;6.978;2023-05-07T11:45:46;2.15;;;0.70;;
20824;SDS011;10573;50.936;6.978;2023-05-07T11:48:12;0.75;;;0.70;;
20824;SDS011;10573;50.936;6.978;2023-05-07T11:50:59;3.22;;;1.08;;
20824;SDS011;10573;50.936;6.978;2023-05-07T11:53:37;1.23;;;0.90;;
20824;SDS011;10573;50.936;6.978;2023-05-07T11:56:10;2.00;;;0.90;;
20824;SDS011;10573;50.936;6.978;2023-05-07T11:58:41;1.75;;;0.85;;
20824;SDS011;10573;50.936;6.978;2023-05-07T12:01:07;2.03;;;0.90;;
20824;SDS011;10573;50.936;6.978;2023-05-07T12:03:34;3.22;;;0.90;;
20824;SDS011;10573;50.936;6.978;2023-05-07T12:06:02;1.73;;;1.08;;
20824;SDS011;10573;50.936;6.978;2023-05-07T12:08:28;1.13;;;0.80;;
20824;SDS011;10573;50.936;6.978;2023-05-07T12:10:53;2.83;;;1.10;;
20824;SDS011;10573;50.936;6.978;2023-05-07T12:13:20;2.55;;;0.98;;
20824;SDS011;10573;50.936;6.978;2023-05-07T12:15:46;1.60;;;1.00;;
20824;SDS011;10573;50.936;6.978;2023-05-07T12:18:15;1.90;;;0.90;;
20824;SDS011;10573;50.936;6.978;2023-05-07T12:20:41;2.70;;;1.10;;
20824;SDS011;10573;50.936;6.978;2023-05-07T12:23:07;1.08;;;0.88;;
20824;SDS011;10573;50.936;6.978;2023-05-07T12:25:36;3.13;;;2.07;;
20824;SDS011;10573;50.936;6.978;2023-05-07T12:28:03;1.80;;;1.00;;
20824;SDS011;10573;50.936;6.978;2023-05-07T12:30:30;2.50;;;1.20;;
20824;SDS011;10573;50.936;6.978;2023-05-07T12:32:57;2.17;;;1.17;;
20824;SDS011;10573;50.936;6.978;2023-05-07T12:35:35;4.40;;;1.00;;
20824;SDS011;10573;50.936;6.978;2023-05-07T12:38:04;2.53;;;0.83;;
20824;SDS011;10573;50.936;6.978;2023-05-07T12:40:45;1.38;;;0.80;;
20824;SDS011;10573;50.936;6.978;2023-05-07T12:43:16;0.90;;;0.70;;
20824;SDS011;10573;50.936;6.978;2023-05-07T12:45:43;2.10;;;1.00;;
20824;SDS011;10573;50.936;6.978;2023-05-07T12:48:09;3.28;;;0.88;;
20824;SDS011;10573;50.936;6.978;2023-05-07T12:50:35;2.42;;;1.13;;
20824;SDS011;10573;50.936;6.978;2023-05-07T12:53:00;1.57;;;0.90;;
20824;SDS011;10573;50.936;6.978;2023-05-07T12:55:31;2.08;;;1.00;;
20824;SDS011;10573;50.936;6.978;2023-05-07T12:57:57;2.43;;;1.20;;
20824;SDS011;10573;50.936;6.978;2023-05-07T13:00:35;2.17;;;0.98;;
20824;SDS011;10573;50.936;6.978;2023-05-07T13:03:02;1.20;;;1.02;;
20824;SDS011;10573;50.936;6.978;2023-05-07T13:05:28;2.67;;;1.20;;
20824;SDS011;10573;50.936;6.978;2023-05-07T13:07:56;1.73;;;1.20;;
20824;SDS011;10573;50.936;6.978;2023-05-07T13:10:22;2.50;;;1.20;;
20824;SDS011;10573;50.936;6.978;2023-05-07T13:12:49;3.47;;;1.00;;
20824;SDS011;10573;50.936;6.978;2023-05-07T13:15:15;5.53;;;1.60;;
20824;SDS011;10573;50.936;6.978;2023-05-07T13:17:41;2.50;;;1.37;;
20824;SDS011;10573;50.936;6.978;2023-05-07T13:20:06;3.60;;;1.40;;
20824;SDS011;10573;50.936;6.978;2023-05-07T13:22:33;1.67;;;1.35;;
20824;SDS011;10573;50.936;6.978;2023-05-07T13:24:58;4.63;;;1.40;;
20824;SDS011;10573;50.936;6.978;2023-05-07T13:27:24;3.87;;;1.57;;
20824;SDS011;10573;50.936;6.978;2023-05-07T13:29:50;2.50;;;1.30;;
20824;SDS011;10573;50.936;6.978;2023-05-07T13:32:15;4.57;;;1.58;;
20824;SDS011;10573;50.936;6.978;2023-05-07T13:34:41;3.03;;;1.60;;
20824;SDS011;10573;50.936;6.978;2023-05-07T13:37:06;2.23;;;1.50;;
20824;SDS011;10573;50.936;6.978;2023-05-07T13:39:33;7.18;;;2.10;;
20824;SDS011;10573;50.936;6.978;2023-05-07T13:41:58;5.90;;;1.80;;
20824;SDS011;10573;50.936;6.978;2023-05-07T13:44:24;2.92;;;1.70;;
20824;SDS011;10573;50.936;6.978;2023-05-07T13:46:49;6.10;;;1.97;;
20824;SDS011;10573;50.936;6.978;2023-05-07T13:49:15;1.53;;;1.20;;
20824;SDS011;10573;50.936;6.978;2023-05-07T13:51:40;3.67;;;1.33;;
20824;SDS011;10573;50.936;6.978;2023-05-07T13:54:06;6.03;;;1.88;;
20824;SDS011;10573;50.936;6.978;2023-05-07T13:56:31;2.77;;;1.50;;
20824;SDS011;10573;50.936;6.978;2023-05-07T13:58:57;2.13;;;1.60;;
20824;SDS011;10573;50.936;6.978;2023-05-07T14:01:23;3.97;;;1.48;;
20824;SDS011;10573;50.936;6.978;2023-05-07T14:03:49;2.80;;;1.58;;
20824;SDS011;10573;50.936;6.978;2023-05-07T14:06:14;2.45;;;1.40;;
20824;SDS011;10573;50.936;6.978;2023-05-07T14:08:40;3.90;;;1.30;;
20824;SDS011;10573;50.936;6.978;2023-05-07T14:11:05;2.47;;;1.17;;
20824;SDS011;10573;50.936;6.978;2023-05-07T14:13:31;5.18;;;1.63;;
20824;SDS011;10573;50.936;6.978;2023-05-07T14:15:57;2.50;;;1.13;;
20824;SDS011;10573;50.936;6.978;2023-05-07T14:18:23;2.35;;;1.42;;
20824;SDS011;10573;50.936;6.978;2023-05-07T14:20:49;2.30;;;1.47;;
20824;SDS011;10573;50.936;6.978;2023-05-07T14:23:14;2.00;;;1.20;;
20824;SDS011;10573;50.936;6.978;2023-05-07T14:25:42;3.38;;;1.20;;
20824;SDS011;10573;50.936;6.978;2023-05-07T14:28:08;4.30;;;1.38;;
20824;SDS011;10573;50.936;6.978;2023-05-07T14:30:34;3.20;;;1.60;;
20824;SDS011;10573;50.936;6.978;2023-05-07T14:33:00;2.63;;;1.60;;
20824;SDS011;10573;50.936;6.978;2023-05-07T14:35:25;2.07;;;1.50;;
20824;SDS011;10573;50.936;6.978;2023-05-07T14:37:50;2.57;;;1.57;;
20824;SDS011;10573;50.936;6.978;2023-05-07T14:40:16;3.07;;;1.43;;
20824;SDS011;10573;50.936;6.978;2023-05-07T14:42:41;4.40;;;1.58;;
20824;SDS011;10573;50.936;6.978;2023-05-07T14:45:07;2.80;;;1.67;;
20824;SDS011;10573;50.936;6.978;2023-05-07T14:47:33;3.70;;;2.08;;
20824;SDS011;10573;50.936;6.978;2023-05-07T14:49:59;4.43;;;1.90;;
20824;SDS011;10573;50.936;6.978;2023-05-07T14:52:26;3.05;;;1.52;;
20824;SDS011;10573;50.936;6.978;2023-05-07T14:54:51;3.13;;;1.50;;
20824;SDS011;10573;50.936;6.978;2023-05-07T14:57:17;1.87;;;1.53;;
20824;SDS011;10573;50.936;6.978;2023-05-07T14:59:43;4.18;;;1.90;;
20824;SDS011;10573;50.936;6.978;2023-05-07T15:02:12;6.65;;;1.92;;
20824;SDS011;10573;50.936;6.978;2023-05-07T15:04:38;4.00;;;1.75;;
20824;SDS011;10573;50.936;6.978;2023-05-07T15:07:11;3.93;;;1.70;;
20824;SDS011;10573;50.936;6.978;2023-05-07T15:09:37;4.18;;;2.10;;
20824;SDS011;10573;50.936;6.978;2023-05-07T15:12:02;3.60;;;1.70;;
20824;SDS011;10573;50.936;6.978;2023-05-07T15:14:31;3.63;;;1.73;;
20824;SDS011;10573;50.936;6.978;2023-05-07T15:16:56;3.83;;;1.97;;
20824;SDS011;10573;50.936;6.978;2023-05-07T15:19:22;4.03;;;1.90;;
20824;SDS011;10573;50.936;6.978;2023-05-07T15:21:49;3.38;;;1.73;;
20824;SDS011;10573;50.936;6.978;2023-05-07T15:24:15;3.78;;;1.60;;
20824;SDS011;10573;50.936;6.978;2023-05-07T15:26:41;3.70;;;1.50;;
20824;SDS011;10573;50.936;6.978;2023-05-07T15:29:06;2.67;;;1.60;;
20824;SDS011;10573;50.936;6.978;2023-05-07T15:31:35;3.40;;;1.73;;
20824;SDS011;10573;50.936;6.978;2023-05-07T15:34:02;2.50;;;1.95;;
20824;SDS011;10573;50.936;6.978;2023-05-07T15:36:28;4.63;;;1.83;;
20824;SDS011;10573;50.936;6.978;2023-05-07T15:38:53;2.43;;;1.70;;
20824;SDS011;10573;50.936;6.978;2023-05-07T15:41:18;2.40;;;1.80;;
20824;SDS011;10573;50.936;6.978;2023-05-07T15:43:49;3.80;;;1.90;;
20824;SDS011;10573;50.936;6.978;2023-05-07T15:46:20;3.50;;;2.10;;
20824;SDS011;10573;50.936;6.978;2023-05-07T15:48:49;4.88;;;1.90;;
20824;SDS011;10573;50.936;6.978;2023-05-07T15:51:15;3.75;;;1.90;;
20824;SDS011;10573;50.936;6.978;2023-05-07T15:53:41;2.53;;;1.80;;
20824;SDS011;10573;50.936;6.978;2023-05-07T15:56:07;3.33;;;1.40;;
20824;SDS011;10573;50.936;6.978;2023-05-07T15:58:33;3.73;;;1.70;;
20824;SDS011;10573;50.936;6.978;2023-05-07T16:00:59;1.65;;;1.42;;
20824;SDS011;10573;50.936;6.978;2023-05-07T16:03:26;1.87;;;1.10;;
20824;SDS011;10573;50.936;6.978;2023-05-07T16:05:52;3.20;;;1.50;;
20824;SDS011;10573;50.936;6.978;2023-05-07T16:08:18;3.33;;;1.45;;
20824;SDS011;10573;50.936;6.978;2023-05-07T16:10:43;2.70;;;1.43;;
20824;SDS011;10573;50.936;6.978;2023-05-07T16:13:08;2.23;;;1.60;;
20824;SDS011;10573;50.936;6.978;2023-05-07T16:15:34;2.13;;;1.30;;
20824;SDS011;10573;50.936;6.978;2023-05-07T16:18:00;1.83;;;1.60;;
20824;SDS011;10573;50.936;6.978;2023-05-07T16:20:26;2.07;;;1.57;;
20824;SDS011;10573;50.936;6.978;2023-05-07T16:22:56;3.22;;;1.75;;
20824;SDS011;10573;50.936;6.978;2023-05-07T16:25:22;2.97;;;1.85;;
20824;SDS011;10573;50.936;6.978;2023-05-07T16:27:48;3.15;;;1.85;;
20824;SDS011;10573;50.936;6.978;2023-05-07T16:30:13;4.30;;;2.17;;
20824;SDS011;10573;50.936;6.978;2023-05-07T16:32:39;2.60;;;1.90;;
20824;SDS011;10573;50.936;6.978;2023-05-07T16:35:04;3.80;;;1.70;;
20824;SDS011;10573;50.936;6.978;2023-05-07T16:37:31;2.40;;;1.83;;
20824;SDS011;10573;50.936;6.978;2023-05-07T16:39:57;2.97;;;1.80;;
20824;SDS011;10573;50.936;6.978;2023-05-07T16:42:25;2.40;;;1.88;;
20824;SDS011;10573;50.936;6.978;2023-05-07T16:44:50;4.60;;;1.73;;
20824;SDS011;10573;50.936;6.978;2023-05-07T16:47:16;3.05;;;1.83;;
20824;SDS011;10573;50.936;6.978;2023-05-07T16:49:41;3.03;;;1.88;;
20824;SDS011;10573;50.936;6.978;2023-05-07T16:52:06;2.63;;;1.70;;
20824;SDS011;10573;50.936;6.978;2023-05-07T16:54:33;1.70;;;1.50;;
20824;SDS011;10573;50.936;6.978;2023-05-07T16:56:59;1.60;;;1.30;;
20824;SDS011;10573;50.936;6.978;2023-05-07T16:59:25;3.55;;;1.60;;
20824;SDS011;10573;50.936;6.978;2023-05-07T17:01:50;3.43;;;1.70;;
20824;SDS011;10573;50.936;6.978;2023-05-07T17:04:16;5.07;;;1.50;;
20824;SDS011;10573;50.936;6.978;2023-05-07T17:06:42;3.17;;;1.40;;
20824;SDS011;10573;50.936;6.978;2023-05-07T17:09:07;2.33;;;1.63;;
20824;SDS011;10573;50.936;6.978;2023-05-07T17:11:33;2.27;;;1.20;;
20824;SDS011;10573;50.936;6.978;2023-05-07T17:13:59;1.85;;;1.13;;
20824;SDS011;10573;50.936;6.978;2023-05-07T17:16:24;1.50;;;1.10;;
20824;SDS011;10573;50.936;6.978;2023-05-07T17:18:50;1.97;;;1.03;;
20824;SDS011;10573;50.936;6.978;2023-05-07T17:21:15;2.77;;;1.10;;
20824;SDS011;10573;50.936;6.978;2023-05-07T17:23:41;1.67;;;1.30;;
20824;SDS011;10573;50.936;6.978;2023-05-07T17:26:15;2.47;;;1.27;;
20824;SDS011;10573;50.936;6.978;2023-05-07T17:28:41;2.60;;;1.10;;
20824;SDS011;10573;50.936;6.978;2023-05-07T17:31:06;2.65;;;1.20;;
20824;SDS011;10573;50.936;6.978;2023-05-07T17:33:32;2.80;;;1.43;;
20824;SDS011;10573;50.936;6.978;2023-05-07T17:35:57;3.60;;;1.63;;
20824;SDS011;10573;50.936;6.978;2023-05-07T17:38:23;2.50;;;1.50;;
20824;SDS011;10573;50.936;6.978;2023-05-07T17:40:48;8.70;;;5.63;;
20824;SDS011;10573;50.936;6.978;2023-05-07T17:43:14;6.73;;;4.57;;
20824;SDS011;10573;50.936;6.978;2023-05-07T17:45:39;2.80;;;2.33;;
20824;SDS011;10573;50.936;6.978;2023-05-07T17:48:05;4.07;;;1.70;;
20824;SDS011;10573;50.936;6.978;2023-05-07T17:50:31;4.90;;;1.85;;
20824;SDS011;10573;50.936;6.978;2023-05-07T17:52:56;4.30;;;1.90;;
20824;SDS011;10573;50.936;6.978;2023-05-07T17:55:21;4.53;;;2.08;;
20824;SDS011;10573;50.936;6.978;2023-05-07T17:57:47;4.10;;;1.80;;
20824;SDS011;10573;50.936;6.978;2023-05-07T18:00:13;3.43;;;1.90;;
20824;SDS011;10573;50.936;6.978;2023-05-07T18:02:38;4.55;;;1.98;;
20824;SDS011;10573;50.936;6.978;2023-05-07T18:05:06;4.50;;;2.25;;
20824;SDS011;10573;50.936;6.978;2023-05-07T18:07:32;4.43;;;2.63;;
20824;SDS011;10573;50.936;6.978;2023-05-07T18:09:57;3.78;;;2.05;;
20824;SDS011;10573;50.936;6.978;2023-05-07T18:12:23;3.90;;;2.47;;
20824;SDS011;10573;50.936;6.978;2023-05-07T18:14:48;4.00;;;2.30;;
20824;SDS011;10573;50.936;6.978;2023-05-07T18:17:13;4.32;;;2.38;;
20824;SDS011;10573;50.936;6.978;2023-05-07T18:19:39;4.63;;;2.03;;
20824;SDS011;10573;50.936;6.978;2023-05-07T18:22:06;3.80;;;1.85;;
20824;SDS011;10573;50.936;6.978;2023-05-07T18:24:31;2.50;;;2.13;;
20824;SDS011;10573;50.936;6.978;2023-05-07T18:26:56;4.73;;;2.00;;
20824;SDS011;10573;50.936;6.978;2023-05-07T18:29:22;2.95;;;2.00;;
20824;SDS011;10573;50.936;6.978;2023-05-07T18:31:48;4.30;;;2.17;;
20824;SDS011;10573;50.936;6.978;2023-05-07T18:34:13;2.20;;;1.95;;
20824;SDS011;10573;50.936;6.978;2023-05-07T18:36:39;3.10;;;1.90;;
20824;SDS011;10573;50.936;6.978;2023-05-07T18:39:04;2.95;;;2.20;;
20824;SDS011;10573;50.936;6.978;2023-05-07T18:41:30;2.97;;;2.33;;
20824;SDS011;10573;50.936;6.978;2023-05-07T18:43:56;3.80;;;2.10;;
20824;SDS011;10573;50.936;6.978;2023-05-07T18:46:21;3.57;;;2.10;;
20824;SDS011;10573;50.936;6.978;2023-05-07T18:48:46;3.60;;;2.10;;
20824;SDS011;10573;50.936;6.978;2023-05-07T18:51:12;4.50;;;2.13;;
20824;SDS011;10573;50.936;6.978;2023-05-07T18:53:38;4.33;;;2.80;;
20824;SDS011;10573;50.936;6.978;2023-05-07T18:56:05;5.20;;;2.30;;
20824;SDS011;10573;50.936;6.978;2023-05-07T18:58:31;5.75;;;2.67;;
20824;SDS011;10573;50.936;6.978;2023-05-07T19:00:58;5.50;;;2.60;;
20824;SDS011;10573;50.936;6.978;2023-05-07T19:03:25;3.40;;;2.60;;
20824;SDS011;10573;50.936;6.978;2023-05-07T19:05:50;6.07;;;2.92;;
20824;SDS011;10573;50.936;6.978;2023-05-07T19:08:16;4.27;;;3.13;;
20824;SDS011;10573;50.936;6.978;2023-05-07T19:10:41;4.47;;;3.13;;
20824;SDS011;10573;50.936;6.978;2023-05-07T19:13:07;6.10;;;3.30;;
20824;SDS011;10573;50.936;6.978;2023-05-07T19:15:32;5.57;;;3.10;;
20824;SDS011;10573;50.936;6.978;2023-05-07T19:17:58;6.17;;;3.50;;
20824;SDS011;10573;50.936;6.978;2023-05-07T19:20:23;5.20;;;2.92;;
20824;SDS011;10573;50.936;6.978;2023-05-07T19:22:49;7.13;;;3.30;;
20824;SDS011;10573;50.936;6.978;2023-05-07T19:25:15;5.55;;;3.50;;
20824;SDS011;10573;50.936;6.978;2023-05-07T19:27:42;8.65;;;3.58;;
20824;SDS011;10573;50.936;6.978;2023-05-07T19:30:07;5.37;;;3.20;;
20824;SDS011;10573;50.936;6.978;2023-05-07T19:32:34;5.47;;;3.67;;
20824;SDS011;10573;50.936;6.978;2023-05-07T19:34:59;7.03;;;3.37;;
20824;SDS011;10573;50.936;6.978;2023-05-07T19:37:25;5.27;;;3.27;;
20824;SDS011;10573;50.936;6.978;2023-05-07T19:39:52;6.53;;;4.15;;
20824;SDS011;10573;50.936;6.978;2023-05-07T19:42:18;4.60;;;3.42;;
20824;SDS011;10573;50.936;6.978;2023-05-07T19:44:44;5.07;;;4.03;;
20824;SDS011;10573;50.936;6.978;2023-05-07T19:47:09;6.50;;;4.55;;
20824;SDS011;10573;50.936;6.978;2023-05-07T19:49:35;5.60;;;4.57;;
20824;SDS011;10573;50.936;6.978;2023-05-07T19:52:01;5.87;;;4.63;;
20824;SDS011;10573;50.936;6.978;2023-05-07T19:54:27;7.93;;;4.95;;
20824;SDS011;10573;50.936;6.978;2023-05-07T19:56:53;9.07;;;4.90;;
20824;SDS011;10573;50.936;6.978;2023-05-07T19:59:21;8.23;;;5.15;;
20824;SDS011;10573;50.936;6.978;2023-05-07T20:01:49;7.75;;;5.70;;
20824;SDS011;10573;50.936;6.978;2023-05-07T20:04:14;10.80;;;6.20;;
20824;SDS011;10573;50.936;6.978;2023-05-07T20:06:40;6.90;;;5.90;;
20824;SDS011;10573;50.936;6.978;2023-05-07T20:09:05;9.03;;;6.30;;
20824;SDS011;10573;50.936;6.978;2023-05-07T20:11:34;7.53;;;6.47;;
20824;SDS011;10573;50.936;6.978;2023-05-07T20:13:59;7.03;;;6.00;;
20824;SDS011;10573;50.936;6.978;2023-05-07T20:16:25;8.23;;;6.25;;
20824;SDS011;10573;50.936;6.978;2023-05-07T20:18:50;8.33;;;6.23;;
20824;SDS011;10573;50.936;6.978;2023-05-07T20:21:15;6.53;;;5.90;;
20824;SDS011;10573;50.936;6.978;2023-05-07T20:23:41;6.72;;;6.03;;
20824;SDS011;10573;50.936;6.978;2023-05-07T20:26:06;8.60;;;6.13;;
20824;SDS011;10573;50.936;6.978;2023-05-07T20:28:32;7.80;;;5.70;;
20824;SDS011;10573;50.936;6.978;2023-05-07T20:30:57;7.90;;;5.30;;
20824;SDS011;10573;50.936;6.978;2023-05-07T20:33:23;8.87;;;5.20;;
20824;SDS011;10573;50.936;6.978;2023-05-07T20:35:48;6.55;;;5.15;;
20824;SDS011;10573;50.936;6.978;2023-05-07T20:38:13;7.40;;;5.33;;
20824;SDS011;10573;50.936;6.978;2023-05-07T20:40:39;6.80;;;4.30;;
20824;SDS011;10573;50.936;6.978;2023-05-07T20:43:05;4.28;;;3.75;;
20824;SDS011;10573;50.936;6.978;2023-05-07T20:45:30;4.55;;;3.22;;
20824;SDS011;10573;50.936;6.978;2023-05-07T20:47:56;5.30;;;3.07;;
20824;SDS011;10573;50.936;6.978;2023-05-07T20:50:22;4.32;;;2.92;;
20824;SDS011;10573;50.936;6.978;2023-05-07T20:52:49;3.83;;;3.28;;
20824;SDS011;10573;50.936;6.978;2023-05-07T20:55:14;4.03;;;2.60;;
20824;SDS011;10573;50.936;6.978;2023-05-07T20:57:39;3.17;;;2.57;;
20824;SDS011;10573;50.936;6.978;2023-05-07T21:00:05;3.97;;;2.50;;
20824;SDS011;10573;50.936;6.978;2023-05-07T21:02:32;3.08;;;2.33;;
20824;SDS011;10573;50.936;6.978;2023-05-07T21:04:57;3.20;;;2.60;;
20824;SDS011;10573;50.936;6.978;2023-05-07T21:07:23;3.07;;;2.20;;
20824;SDS011;10573;50.936;6.978;2023-05-07T21:09:48;3.53;;;2.37;;
20824;SDS011;10573;50.936;6.978;2023-05-07T21:12:13;3.75;;;2.47;;
20824;SDS011;10573;50.936;6.978;2023-05-07T21:14:39;2.50;;;2.30;;
20824;SDS011;10573;50.936;6.978;2023-05-07T21:17:05;3.13;;;2.30;;
20824;SDS011;10573;50.936;6.978;2023-05-07T21:19:31;3.90;;;2.55;;
20824;SDS011;10573;50.936;6.978;2023-05-07T21:21:57;3.13;;;2.60;;
20824;SDS011;10573;50.936;6.978;2023-05-07T21:24:23;3.40;;;2.97;;
20824;SDS011;10573;50.936;6.978;2023-05-07T21:26:49;3.55;;;2.60;;
20824;SDS011;10573;50.936;6.978;2023-05-07T21:29:15;3.17;;;2.88;;
20824;SDS011;10573;50.936;6.978;2023-05-07T21:31:40;3.70;;;2.73;;
20824;SDS011;10573;50.936;6.978;2023-05-07T21:34:06;6.82;;;3.30;;
20824;SDS011;10573;50.936;6.978;2023-05-07T21:36:32;6.30;;;3.07;;
20824;SDS011;10573;50.936;6.978;2023-05-07T21:38:58;6.93;;;3.45;;
20824;SDS011;10573;50.936;6.978;2023-05-07T21:41:23;4.32;;;3.40;;
20824;SDS011;10573;50.936;6.978;2023-05-07T21:43:48;5.37;;;4.07;;
20824;SDS011;10573;50.936;6.978;2023-05-07T21:46:14;5.60;;;4.20;;
20824;SDS011;10573;50.936;6.978;2023-05-07T21:48:39;6.60;;;4.93;;
20824;SDS011;10573;50.936;6.978;2023-05-07T21:51:06;6.70;;;5.33;;
20824;SDS011;10573;50.936;6.978;2023-05-07T21:53:32;8.20;;;6.35;;
20824;SDS011;10573;50.936;6.978;2023-05-07T21:55:58;10.15;;;6.43;;
20824;SDS011;10573;50.936;6.978;2023-05-07T21:58:24;32.30;;;19.75;;
20824;SDS011;10573;50.936;6.978;2023-05-07T22:00:50;33.95;;;21.35;;
20824;SDS011;10573;50.936;6.978;2023-05-07T22:03:16;9.07;;;7.10;;
20824;SDS011;10573;50.936;6.978;2023-05-07T22:05:41;8.70;;;7.00;;
20824;SDS011;10573;50.936;6.978;2023-05-07T22:08:06;7.90;;;7.10;;
20824;SDS011;10573;50.936;6.978;2023-05-07T22:10:32;10.50;;;7.43;;
20824;SDS011;10573;50.936;6.978;2023-05-07T22:12:57;9.48;;;7.10;;
20824;SDS011;10573;50.936;6.978;2023-05-07T22:15:23;8.43;;;7.23;;
20824;SDS011;10573;50.936;6.978;2023-05-07T22:17:48;10.40;;;7.00;;
20824;SDS011;10573;50.936;6.978;2023-05-07T22:20:13;8.60;;;7.10;;
20824;SDS011;10573;50.936;6.978;2023-05-07T22:22:46;8.67;;;7.77;;
20824;SDS011;10573;50.936;6.978;2023-05-07T22:25:12;9.70;;;7.30;;
20824;SDS011;10573;50.936;6.978;2023-05-07T22:27:38;12.38;;;7.97;;
20824;SDS011;10573;50.936;6.978;2023-05-07T22:30:04;10.53;;;7.70;;
20824;SDS011;10573;50.936;6.978;2023-05-07T22:32:30;11.97;;;8.00;;
20824;SDS011;10573;50.936;6.978;2023-05-07T22:34:55;9.93;;;7.50;;
20824;SDS011;10573;50.936;6.978;2023-05-07T22:37:21;10.30;;;7.30;;
20824;SDS011;10573;50.936;6.978;2023-05-07T22:39:46;8.73;;;7.05;;
20824;SDS011;10573;50.936;6.978;2023-05-07T22:42:12;7.73;;;5.97;;
20824;SDS011;10573;50.936;6.978;2023-05-07T22:44:37;5.93;;;4.80;;
20824;SDS011;10573;50.936;6.978;2023-05-07T22:47:02;7.75;;;5.32;;
20824;SDS011;10573;50.936;6.978;2023-05-07T22:49:28;7.10;;;5.27;;
20824;SDS011;10573;50.936;6.978;2023-05-07T22:51:53;6.30;;;4.70;;
20824;SDS011;10573;50.936;6.978;2023-05-07T22:54:19;6.40;;;4.90;;
20824;SDS011;10573;50.936;6.978;2023-05-07T22:56:44;6.00;;;5.03;;
20824;SDS011;10573;50.936;6.978;2023-05-07T22:59:10;8.93;;;5.25;;
20824;SDS011;10573;50.936;6.978;2023-05-07T23:01:35;8.10;;;4.83;;
20824;SDS011;10573;50.936;6.978;2023-05-07T23:04:00;6.75;;;5.00;;
20824;SDS011;10573;50.936;6.978;2023-05-07T23:06:26;5.00;;;4.43;;
20824;SDS011;10573;50.936;6.978;2023-05-07T23:08:51;5.83;;;4.90;;
20824;SDS011;10573;50.936;6.978;2023-05-07T23:11:17;6.67;;;4.60;;
20824;SDS011;10573;50.936;6.978;2023-05-07T23:13:42;6.50;;;4.90;;
20824;SDS011;10573;50.936;6.978;2023-05-07T23:16:08;5.83;;;4.70;;
20824;SDS011;10573;50.936;6.978;2023-05-07T23:18:33;6.97;;;5.10;;
20824;SDS011;10573;50.936;6.978;2023-05-07T23:20:59;7.18;;;4.90;;
20824;SDS011;10573;50.936;6.978;2023-05-07T23:23:24;6.40;;;5.10;;
20824;SDS011;10573;50.936;6.978;2023-05-07T23:25:50;5.60;;;4.80;;
20824;SDS011;10573;50.936;6.978;2023-05-07T23:28:16;5.85;;;4.55;;
20824;SDS011;10573;50.936;6.978;2023-05-07T23:30:42;6.00;;;5.38;;
20824;SDS011;10573;50.936;6.978;2023-05-07T23:33:07;7.27;;;5.33;;
20824;SDS011;10573;50.936;6.978;2023-05-07T23:35:33;9.65;;;5.45;;
20824;SDS011;10573;50.936;6.978;2023-05-07T23:37:58;7.03;;;5.47;;
20824;SDS011;10573;50.936;6.978;2023-05-07T23:40:23;6.10;;;5.47;;
20824;SDS011;10573;50.936;6.978;2023-05-07T23:42:49;8.30;;;5.70;;
20824;SDS011;10573;50.936;6.978;2023-05-07T23:45:14;7.90;;;5.77;;
20824;SDS011;10573;50.936;6.978;2023-05-07T23:47:40;7.53;;;5.63;;
20824;SDS011;10573;50.936;6.978;2023-05-07T23:50:06;6.80;;;6.10;;
20824;SDS011;10573;50.936;6.978;2023-05-07T23:52:31;6.57;;;5.75;;
20824;SDS011;10573;50.936;6.978;2023-05-07T23:54:57;6.27;;;5.67;;
20824;SDS011;10573;50.936;6.978;2023-05-07T23:57:22;6.63;;;5.80;;
20824;SDS011;10573;50.936;6.978;2023-05-07T23:59:47;7.53;;;6.30;;
